Saint Albans, Missouri
Current Conditions -  °F | °C
As of 4:54 PM on Thursday 18 Dec 2014 (Local Time) from KSUS Reporting Station
Haze Haze  
Wind Chill: 33°   Ceiling: 800
Heat Index: 33°   Visibility: 2.5mi
Dew Point: 30°   Wind: 0mph
Humidity: 89%   Direction: NA
Pressure: 30.24"   Gusts: NA
Location:  38.58°N, 90.77°W
Report Text: KSUS 182254Z 00000KT 2 1/2SM BR BKN008 OVC013 01/M01 A3024 RMK AO2 SLPNO T00061011
Loading
Personal Weather Stations






























Interactive Weather Map New forecast layout! Learn more

10-Day Weather Forecast

Advertisements
Track Severe Weather on mobile